createdAt,value
2017-08-29T00:01:46.561Z,95.13
2017-08-29T00:04:14.075Z,93.81
2017-08-29T00:06:41.628Z,94.45
2017-08-29T00:09:09.152Z,91.65
2017-08-29T00:11:36.681Z,94.14
2017-08-29T00:14:04.186Z,93.49
2017-08-29T00:16:31.709Z,92.29
2017-08-29T00:18:59.220Z,92.66
2017-08-29T00:21:26.760Z,92.43
2017-08-29T00:23:54.297Z,91.43
2017-08-29T00:26:21.808Z,90.95
2017-08-29T00:28:49.341Z,91.24
2017-08-29T00:31:16.887Z,91.45
2017-08-29T00:33:44.397Z,93.40
2017-08-29T00:36:11.999Z,92.73
2017-08-29T00:38:39.511Z,93.76
2017-08-29T00:41:07.079Z,95.55
2017-08-29T00:43:34.619Z,96.29
2017-08-29T00:46:02.155Z,96.71
2017-08-29T00:48:29.682Z,96.96
2017-08-29T00:50:57.203Z,95.11
2017-08-29T00:53:24.763Z,93.37
2017-08-29T00:55:52.341Z,95.24
2017-08-29T00:58:19.857Z,92.65
2017-08-29T01:00:47.386Z,91.94
2017-08-29T01:03:14.899Z,96.15
2017-08-29T01:05:42.416Z,95.27
2017-08-29T01:08:09.927Z,92.88
2017-08-29T01:10:37.468Z,91.72
2017-08-29T01:13:05.007Z,92.42
2017-08-29T01:15:32.536Z,92.73
2017-08-29T01:18:00.045Z,91.67
2017-08-29T01:20:27.576Z,92.60
2017-08-29T01:22:55.108Z,91.24
2017-08-29T01:25:22.672Z,91.15
2017-08-29T01:27:50.189Z,91.31
2017-08-29T01:30:17.828Z,90.80
2017-08-29T01:32:45.334Z,91.11
2017-08-29T01:35:12.855Z,92.61
2017-08-29T01:37:40.368Z,91.13
2017-08-29T01:40:07.888Z,90.85
2017-08-29T01:42:35.395Z,91.16
2017-08-29T01:45:02.907Z,90.89
2017-08-29T01:47:30.441Z,93.22
2017-08-29T01:49:57.985Z,91.67
2017-08-29T01:52:25.505Z,90.82
2017-08-29T01:54:53.067Z,91.23
2017-08-29T01:57:20.599Z,91.94
2017-08-29T01:59:48.118Z,91.77
2017-08-29T02:02:15.636Z,90.30
2017-08-29T02:04:43.165Z,90.66
2017-08-29T02:07:10.688Z,92.21
2017-08-29T02:09:38.211Z,91.91
2017-08-29T02:12:05.764Z,93.06
2017-08-29T02:14:33.290Z,95.11
2017-08-29T02:17:00.808Z,95.34
2017-08-29T02:19:28.321Z,92.18
2017-08-29T02:21:55.833Z,93.35
2017-08-29T02:24:23.351Z,93.73
2017-08-29T02:26:50.884Z,91.97
2017-08-29T02:29:18.406Z,93.24
2017-08-29T02:31:45.951Z,93.15
2017-08-29T02:34:13.471Z,95.42
2017-08-29T02:36:40.983Z,95.55
2017-08-29T02:39:08.505Z,96.64
2017-08-29T02:41:36.027Z,95.34
2017-08-29T02:44:03.566Z,92.71
2017-08-29T02:46:31.110Z,92.35
2017-08-29T02:48:58.632Z,93.08
2017-08-29T02:51:26.148Z,93.39
2017-08-29T02:53:53.671Z,91.83
2017-08-29T02:56:21.195Z,93.42
2017-08-29T02:58:48.714Z,96.15
2017-08-29T03:01:17.231Z,96.49
2017-08-29T03:03:44.754Z,94.21
2017-08-29T03:06:12.287Z,93.13
2017-08-29T03:08:39.814Z,93.25
2017-08-29T03:11:07.347Z,94.71
2017-08-29T03:13:34.866Z,93.39
2017-08-29T03:16:02.379Z,93.15
2017-08-29T03:18:29.907Z,93.49
2017-08-29T03:20:57.437Z,97.34
2017-08-29T03:23:24.970Z,97.46
2017-08-29T03:25:52.487Z,97.68
2017-08-29T03:28:20.003Z,97.27
2017-08-29T03:30:47.532Z,98.02
2017-08-29T03:33:15.048Z,97.92
2017-08-29T03:35:42.580Z,97.64
2017-08-29T03:38:10.096Z,95.20
2017-08-29T03:40:37.631Z,92.94
2017-08-29T03:43:05.153Z,92.89
2017-08-29T03:45:32.666Z,93.87
2017-08-29T03:48:00.188Z,96.46
2017-08-29T03:50:27.718Z,98.16
2017-08-29T03:52:55.246Z,98.09
2017-08-29T03:55:22.790Z,97.54
2017-08-29T03:57:50.319Z,94.77
2017-08-29T04:00:17.833Z,93.51
2017-08-29T04:02:45.371Z,93.56
2017-08-29T04:05:12.905Z,93.34
2017-08-29T04:07:40.431Z,93.99
2017-08-29T04:10:08.034Z,93.90
2017-08-29T04:12:35.551Z,92.79
2017-08-29T04:15:03.072Z,92.21
2017-08-29T04:17:30.596Z,92.82
2017-08-29T04:19:58.137Z,92.20
2017-08-29T04:22:25.659Z,92.51
2017-08-29T04:24:53.203Z,93.55
2017-08-29T04:27:20.713Z,93.73
2017-08-29T04:29:48.255Z,93.01
2017-08-29T04:32:15.772Z,93.18
2017-08-29T04:34:43.282Z,93.37
2017-08-29T04:37:10.796Z,94.37
2017-08-29T04:39:38.323Z,94.26
2017-08-29T04:42:05.841Z,95.36
2017-08-29T04:44:33.360Z,94.48
2017-08-29T04:47:00.903Z,93.19
2017-08-29T04:49:28.477Z,94.07
2017-08-29T04:51:55.988Z,93.59
2017-08-29T04:54:23.505Z,94.07
2017-08-29T04:56:51.071Z,93.22
2017-08-29T04:59:18.594Z,93.24
2017-08-29T05:01:46.145Z,90.59
2017-08-29T05:04:13.678Z,90.91
2017-08-29T05:06:41.191Z,88.91
2017-08-29T05:09:08.695Z,88.23
2017-08-29T05:11:36.213Z,91.24
2017-08-29T05:14:03.727Z,91.58
2017-08-29T05:16:31.261Z,91.61
2017-08-29T05:18:58.777Z,91.04
2017-08-29T05:21:26.302Z,88.41
2017-08-29T05:23:53.819Z,89.89
2017-08-29T05:26:21.349Z,91.37
2017-08-29T05:28:48.880Z,90.68
2017-08-29T05:31:16.390Z,91.13
2017-08-29T05:33:43.912Z,89.72
2017-08-29T05:36:11.430Z,89.48
2017-08-29T05:38:38.959Z,90.30
2017-08-29T05:41:06.486Z,90.94
2017-08-29T05:43:34.009Z,89.20
2017-08-29T05:46:01.531Z,87.59
2017-08-29T05:48:29.060Z,86.66
2017-08-29T05:50:56.596Z,87.91
2017-08-29T05:53:24.111Z,85.10
2017-08-29T05:55:51.629Z,80.77
2017-08-29T05:58:19.156Z,83.26
2017-08-29T06:00:46.679Z,83.11
2017-08-29T06:03:14.220Z,82.39
2017-08-29T06:05:41.734Z,83.83
2017-08-29T06:08:09.257Z,82.30
2017-08-29T06:10:36.777Z,82.99
2017-08-29T06:13:04.299Z,83.46
2017-08-29T06:15:31.825Z,82.33
2017-08-29T06:17:59.352Z,79.67
2017-08-29T06:20:26.864Z,78.06
2017-08-29T06:22:54.389Z,70.82
2017-08-29T06:25:21.896Z,70.43
2017-08-29T06:27:49.426Z,72.20
2017-08-29T06:30:16.960Z,74.37
2017-08-29T06:32:44.491Z,67.53
2017-08-29T06:35:12.018Z,68.25
2017-08-29T06:37:39.551Z,73.49
2017-08-29T06:40:07.080Z,73.59
2017-08-29T06:42:34.622Z,71.71
2017-08-29T06:45:02.152Z,69.09
2017-08-29T06:47:29.685Z,69.05
2017-08-29T06:49:57.233Z,70.24
2017-08-29T06:52:24.745Z,67.29
2017-08-29T06:54:52.264Z,62.11
2017-08-29T06:57:19.782Z,62.56
2017-08-29T06:59:47.287Z,61.81
2017-08-29T07:02:14.820Z,57.66
2017-08-29T07:04:42.332Z,60.05
2017-08-29T07:07:09.852Z,55.55
2017-08-29T07:09:37.377Z,58.88
2017-08-29T07:12:04.899Z,61.15
2017-08-29T07:14:32.425Z,59.82
2017-08-29T07:16:59.947Z,58.38
2017-08-29T07:19:27.492Z,58.70
2017-08-29T07:21:55.001Z,54.78
2017-08-29T07:24:22.523Z,57.45
2017-08-29T07:26:50.039Z,61.03
2017-08-29T07:29:17.582Z,58.60
2017-08-29T07:31:45.152Z,56.13
2017-08-29T07:34:12.675Z,52.40
2017-08-29T07:36:40.222Z,52.64
2017-08-29T07:39:07.738Z,49.55
2017-08-29T07:41:35.279Z,58.40
2017-08-29T07:44:02.801Z,53.68
2017-08-29T07:46:30.326Z,56.49
2017-08-29T07:48:57.837Z,54.74
2017-08-29T07:51:25.373Z,48.36
2017-08-29T07:53:52.883Z,45.46
2017-08-29T07:56:20.397Z,45.99
2017-08-29T07:58:47.929Z,47.61
2017-08-29T08:01:15.460Z,49.30
2017-08-29T08:03:42.984Z,50.31
2017-08-29T08:06:10.506Z,49.06
2017-08-29T08:08:38.043Z,47.67
2017-08-29T08:11:05.561Z,48.58
2017-08-29T08:13:33.091Z,49.40
2017-08-29T08:16:00.616Z,44.19
2017-08-29T08:18:28.140Z,45.02
2017-08-29T08:20:55.681Z,44.58
2017-08-29T08:23:23.195Z,45.97
2017-08-29T08:25:50.719Z,44.23
2017-08-29T08:28:18.263Z,45.79
2017-08-29T08:30:45.799Z,40.88
2017-08-29T08:33:13.405Z,47.28
2017-08-29T08:35:40.941Z,43.37
2017-08-29T08:38:08.469Z,42.42
2017-08-29T08:40:35.999Z,40.97
2017-08-29T08:43:03.503Z,41.23
2017-08-29T08:45:31.031Z,43.64
2017-08-29T08:47:58.571Z,41.12
2017-08-29T08:50:26.108Z,41.79
2017-08-29T08:52:53.647Z,44.35
2017-08-29T08:55:21.160Z,44.55
2017-08-29T08:57:48.721Z,41.92
2017-08-29T09:00:16.261Z,40.74
2017-08-29T09:02:43.787Z,41.92
2017-08-29T09:05:11.296Z,40.21
2017-08-29T09:07:38.824Z,39.20
2017-08-29T09:10:06.332Z,37.46
2017-08-29T09:12:33.846Z,36.08
2017-08-29T09:15:01.372Z,34.43
2017-08-29T09:17:32.115Z,31.31
2017-08-29T09:20:03.036Z,35.21
2017-08-29T09:22:35.173Z,41.17
2017-08-29T09:25:06.330Z,35.60
2017-08-29T09:27:37.299Z,31.43
2017-08-29T09:30:08.924Z,34.23
2017-08-29T09:32:42.691Z,37.16
2017-08-29T09:35:14.019Z,38.17
2017-08-29T09:37:46.975Z,33.98
2017-08-29T09:40:17.613Z,32.93
2017-08-29T09:42:47.321Z,34.15
2017-08-29T09:45:19.034Z,35.91
2017-08-29T09:47:51.970Z,30.32
2017-08-29T09:50:23.002Z,30.86
2017-08-29T09:52:54.465Z,34.16
2017-08-29T09:55:24.960Z,31.35
2017-08-29T09:57:55.987Z,36.04
2017-08-29T10:00:26.867Z,34.23
2017-08-29T10:02:57.462Z,31.25
2017-08-29T10:05:28.816Z,32.24
2017-08-29T10:08:01.491Z,34.51
2017-08-29T10:10:35.048Z,36.60
2017-08-29T10:13:06.176Z,33.97
2017-08-29T10:15:39.406Z,31.18
2017-08-29T10:18:11.243Z,33.87
2017-08-29T10:20:43.762Z,36.04
2017-08-29T10:23:14.748Z,35.81
2017-08-29T10:25:46.495Z,29.31
2017-08-29T10:28:16.732Z,32.87
2017-08-29T10:30:47.250Z,34.02
2017-08-29T10:33:18.249Z,32.42
2017-08-29T10:35:50.420Z,26.69
2017-08-29T10:38:20.842Z,29.13
2017-08-29T10:40:50.244Z,29.31
2017-08-29T10:43:22.899Z,33.05
2017-08-29T10:45:52.344Z,32.67
2017-08-29T10:48:23.471Z,32.50
2017-08-29T10:50:53.467Z,29.41
2017-08-29T10:53:23.283Z,30.55
2017-08-29T10:55:54.606Z,32.68
2017-08-29T10:58:26.516Z,27.96
2017-08-29T11:00:59.609Z,27.62
2017-08-29T11:03:30.781Z,30.56
2017-08-29T11:06:02.653Z,30.85
2017-08-29T11:08:32.736Z,33.90
2017-08-29T11:11:03.036Z,36.27
2017-08-29T11:13:33.198Z,36.71
2017-08-29T11:16:02.851Z,35.98
2017-08-29T11:18:34.631Z,38.61
2017-08-29T11:21:06.808Z,37.92
2017-08-29T11:23:40.363Z,37.85
2017-08-29T11:26:11.955Z,39.08
2017-08-29T11:28:42.728Z,39.38
2017-08-29T11:31:15.364Z,39.68
2017-08-29T11:33:47.413Z,40.38
2017-08-29T11:36:20.996Z,41.25
2017-08-29T11:38:51.643Z,41.13
2017-08-29T11:41:22.515Z,40.04
2017-08-29T11:43:53.661Z,38.67
2017-08-29T11:46:25.917Z,38.63
2017-08-29T11:48:54.909Z,38.96
2017-08-29T11:51:26.160Z,41.66
2017-08-29T11:53:57.048Z,40.36
2017-08-29T11:56:28.765Z,37.52
2017-08-29T11:58:58.651Z,38.43
2017-08-29T12:01:29.906Z,39.13
2017-08-29T12:04:01.831Z,39.11
2017-08-29T12:06:32.493Z,37.80
2017-08-29T12:09:01.801Z,37.90
2017-08-29T12:11:32.031Z,40.17
2017-08-29T12:14:04.024Z,39.99
2017-08-29T12:16:35.378Z,40.25
2017-08-29T12:19:07.328Z,38.11
2017-08-29T12:21:39.352Z,39.29
2017-08-29T12:24:11.067Z,36.98
2017-08-29T12:26:41.838Z,37.55
2017-08-29T12:29:13.413Z,40.35
2017-08-29T12:31:43.070Z,38.05
2017-08-29T12:34:14.673Z,37.37
2017-08-29T12:36:46.453Z,35.72
2017-08-29T12:39:17.254Z,34.83
2017-08-29T12:41:48.012Z,37.50
2017-08-29T12:44:20.253Z,37.55
2017-08-29T12:46:53.078Z,38.71
2017-08-29T12:49:25.366Z,37.48
2017-08-29T12:51:56.139Z,36.80
2017-08-29T12:54:27.728Z,39.43
2017-08-29T12:56:59.838Z,37.30
2017-08-29T12:59:28.098Z,39.52
2017-08-29T13:01:58.579Z,39.58
2017-08-29T13:04:29.631Z,37.93
2017-08-29T13:07:02.616Z,36.81
2017-08-29T13:09:33.056Z,35.80
2017-08-29T13:12:04.424Z,37.77
2017-08-29T13:14:34.891Z,37.02
2017-08-29T13:17:05.392Z,36.73
2017-08-29T13:19:34.412Z,37.71
2017-08-29T13:22:06.576Z,37.14
2017-08-29T13:24:38.626Z,38.92
2017-08-29T13:27:10.179Z,40.99
2017-08-29T13:30:11.245Z,37.40
2017-08-29T13:32:39.676Z,37.83
2017-08-29T13:35:10.928Z,36.83
2017-08-29T13:37:42.428Z,35.96
2017-08-29T13:40:14.529Z,35.59
2017-08-29T13:42:46.112Z,35.52
2017-08-29T13:45:18.994Z,35.06
2017-08-29T13:47:48.024Z,35.89
2017-08-29T13:50:18.471Z,35.01
2017-08-29T13:52:47.986Z,33.70
2017-08-29T13:55:20.472Z,35.42
2017-08-29T13:58:12.357Z,35.17
2017-08-29T14:04:13.875Z,36.78
2017-08-29T14:06:43.658Z,36.15
2017-08-29T14:09:13.585Z,36.31
2017-08-29T14:11:46.860Z,37.07
2017-08-29T14:14:18.441Z,37.07
2017-08-29T14:16:46.694Z,35.34
2017-08-29T14:19:18.946Z,35.93
2017-08-29T14:21:50.090Z,37.08
2017-08-29T14:24:21.887Z,36.53
2017-08-29T14:26:53.516Z,36.52
2017-08-29T14:29:23.950Z,36.77
2017-08-29T14:31:56.135Z,38.80
2017-08-29T14:34:26.806Z,39.78
2017-08-29T14:36:58.730Z,38.89
2017-08-29T14:39:26.556Z,38.23
2017-08-29T14:41:54.076Z,38.38
2017-08-29T14:44:21.582Z,40.35
2017-08-29T14:47:00.730Z,37.54
2017-08-29T14:49:28.266Z,38.84
2017-08-29T14:51:55.779Z,37.68
2017-08-29T14:54:23.281Z,37.85
2017-08-29T14:56:50.831Z,36.99
2017-08-29T14:59:18.387Z,36.55
2017-08-29T15:01:45.891Z,38.99
2017-08-29T15:04:13.410Z,39.10
2017-08-29T15:06:40.968Z,38.07
2017-08-29T15:09:08.484Z,38.74
2017-08-29T15:11:36.007Z,38.70
2017-08-29T15:14:03.538Z,40.75
2017-08-29T15:16:31.072Z,38.02
2017-08-29T15:18:58.580Z,38.63
2017-08-29T15:21:26.094Z,39.88
2017-08-29T15:23:53.620Z,38.33
2017-08-29T15:26:21.134Z,39.23
2017-08-29T15:28:48.641Z,38.48
2017-08-29T15:31:16.182Z,36.93
2017-08-29T15:33:43.687Z,38.69
2017-08-29T15:36:11.272Z,38.80
2017-08-29T15:38:38.784Z,37.56
2017-08-29T15:41:06.322Z,39.03
2017-08-29T15:43:33.847Z,38.34
2017-08-29T15:46:01.370Z,39.01
2017-08-29T15:48:28.884Z,39.37
2017-08-29T15:50:56.389Z,36.99
2017-08-29T15:53:23.944Z,39.32
2017-08-29T15:55:51.471Z,39.17
2017-08-29T15:58:18.984Z,40.29
2017-08-29T16:00:46.508Z,38.20
2017-08-29T16:03:14.031Z,38.44
2017-08-29T16:05:41.631Z,47.08
2017-08-29T16:08:09.152Z,50.69
2017-08-29T16:10:36.663Z,42.75
2017-08-29T16:13:04.200Z,42.69
2017-08-29T16:15:31.767Z,40.86
2017-08-29T16:17:59.270Z,41.39
2017-08-29T16:20:26.888Z,41.92
2017-08-29T16:22:54.411Z,39.14
2017-08-29T16:25:21.959Z,52.78
2017-08-29T16:27:49.501Z,53.64
2017-08-29T16:30:17.021Z,47.35
2017-08-29T16:32:44.555Z,45.10
2017-08-29T16:35:12.060Z,48.02
2017-08-29T16:37:39.570Z,49.85
2017-08-29T16:40:07.077Z,51.13
2017-08-29T16:42:34.584Z,53.54
2017-08-29T16:45:02.103Z,56.20
2017-08-29T16:47:29.631Z,56.02
2017-08-29T16:49:57.146Z,57.13
2017-08-29T16:52:24.710Z,57.14
2017-08-29T16:54:52.234Z,57.55
2017-08-29T16:57:19.755Z,57.69
2017-08-29T16:59:47.281Z,59.04
2017-08-29T17:02:14.808Z,60.30
2017-08-29T17:04:42.344Z,60.51
2017-08-29T17:07:09.860Z,61.15
2017-08-29T17:09:37.380Z,62.71
2017-08-29T17:12:04.897Z,61.41
2017-08-29T17:14:32.438Z,63.08
2017-08-29T17:17:00.032Z,63.23
2017-08-29T17:19:27.556Z,62.53
2017-08-29T17:21:55.091Z,64.54
2017-08-29T17:24:22.621Z,67.51
2017-08-29T17:26:50.127Z,67.59
2017-08-29T17:29:17.647Z,68.82
2017-08-29T17:31:45.166Z,69.98
2017-08-29T17:34:12.667Z,69.36
2017-08-29T17:36:40.222Z,66.77
2017-08-29T17:39:07.767Z,65.69
2017-08-29T17:41:35.313Z,65.06
2017-08-29T17:44:02.838Z,65.91
2017-08-29T17:46:30.353Z,67.41
2017-08-29T17:48:57.899Z,67.63
2017-08-29T17:51:25.411Z,66.50
2017-08-29T17:53:52.944Z,67.59
2017-08-29T17:56:20.486Z,66.59
2017-08-29T17:58:48.012Z,66.90
2017-08-29T18:01:15.555Z,69.83
2017-08-29T18:03:43.107Z,68.12
2017-08-29T18:06:10.698Z,69.62
2017-08-29T18:08:38.239Z,68.68
2017-08-29T18:11:05.792Z,70.38
2017-08-29T18:13:33.408Z,69.68
2017-08-29T18:16:00.978Z,71.14
2017-08-29T18:18:28.504Z,71.00
2017-08-29T18:20:56.156Z,71.24
2017-08-29T18:23:23.679Z,71.77
2017-08-29T18:25:51.211Z,71.14
2017-08-29T18:28:18.721Z,71.35
2017-08-29T18:30:46.254Z,71.53
2017-08-29T18:33:13.836Z,72.21
2017-08-29T18:35:41.391Z,73.50
2017-08-29T18:38:08.961Z,74.21
2017-08-29T18:40:36.510Z,74.96
2017-08-29T18:43:04.031Z,75.67
2017-08-29T18:45:31.548Z,73.77
2017-08-29T18:47:59.313Z,73.83
2017-08-29T18:50:26.886Z,74.63
2017-08-29T18:52:54.415Z,76.59
2017-08-29T18:55:22.017Z,75.64
2017-08-29T18:57:49.528Z,74.93
2017-08-29T19:00:17.196Z,75.61
2017-08-29T19:02:44.746Z,77.72
2017-08-29T19:05:12.303Z,79.34
2017-08-29T19:07:39.831Z,77.97
2017-08-29T19:10:08.225Z,77.67
2017-08-29T19:12:35.751Z,79.66
2017-08-29T19:15:03.500Z,80.74
2017-08-29T19:17:31.046Z,79.78
2017-08-29T19:19:58.819Z,79.33
2017-08-29T19:22:26.568Z,80.14
2017-08-29T19:24:55.163Z,80.55
2017-08-29T19:27:22.707Z,80.85
2017-08-29T19:29:50.237Z,81.69
2017-08-29T19:32:17.789Z,81.91
2017-08-29T19:34:45.338Z,82.38
2017-08-29T19:37:12.866Z,82.10
2017-08-29T19:39:40.403Z,82.38
2017-08-29T19:42:07.945Z,81.33
2017-08-29T19:44:35.458Z,82.63
2017-08-29T19:47:02.982Z,83.05
2017-08-29T19:49:30.523Z,83.54
2017-08-29T19:51:58.047Z,84.11
2017-08-29T19:54:25.575Z,82.84
2017-08-29T19:56:53.103Z,82.51
2017-08-29T19:59:20.665Z,84.42
2017-08-29T20:01:48.200Z,84.04
2017-08-29T20:04:15.725Z,83.46
2017-08-29T20:06:43.297Z,83.33
2017-08-29T20:09:10.832Z,84.93
2017-08-29T20:11:38.355Z,86.92
2017-08-29T20:14:05.875Z,84.98
2017-08-29T20:16:33.419Z,84.25
2017-08-29T20:19:00.943Z,85.31
2017-08-29T20:21:28.473Z,83.97
2017-08-29T20:23:56.001Z,85.31
2017-08-29T20:26:23.651Z,85.15
2017-08-29T20:28:51.169Z,85.99
2017-08-29T20:31:18.683Z,86.32
2017-08-29T20:33:46.211Z,86.61
2017-08-29T20:36:13.735Z,86.59
2017-08-29T20:38:41.347Z,86.28
2017-08-29T20:41:08.875Z,86.88
2017-08-29T20:43:36.514Z,85.67
2017-08-29T20:46:04.073Z,86.24
2017-08-29T20:48:31.597Z,84.56
2017-08-29T20:50:59.127Z,85.47
2017-08-29T20:53:26.656Z,87.02
2017-08-29T20:55:54.183Z,86.64
2017-08-29T20:58:21.706Z,86.49
2017-08-29T21:00:49.246Z,85.93
2017-08-29T21:03:16.778Z,86.44
2017-08-29T21:05:44.627Z,87.30
2017-08-29T21:08:12.168Z,87.96
2017-08-29T21:10:39.706Z,89.23
2017-08-29T21:13:07.223Z,91.23
2017-08-29T21:15:34.772Z,87.21
2017-08-29T21:18:02.317Z,88.17
2017-08-29T21:20:29.836Z,87.19
2017-08-29T21:22:57.401Z,90.07
2017-08-29T21:25:24.921Z,88.32
2017-08-29T21:27:52.456Z,88.95
2017-08-29T21:30:20.018Z,88.05
2017-08-29T21:32:47.545Z,87.41
2017-08-29T21:35:15.093Z,89.18
2017-08-29T21:37:42.645Z,88.27
2017-08-29T21:40:10.184Z,87.03
2017-08-29T21:42:37.701Z,88.07
2017-08-29T21:45:05.243Z,89.63
2017-08-29T21:47:32.768Z,87.50
2017-08-29T21:50:00.297Z,89.97
2017-08-29T21:52:27.829Z,91.21
2017-08-29T21:54:55.343Z,88.93
2017-08-29T21:57:22.869Z,90.54
2017-08-29T21:59:50.380Z,89.51
2017-08-29T22:02:17.907Z,89.51
2017-08-29T22:04:45.431Z,90.23
2017-08-29T22:07:13.015Z,90.78
2017-08-29T22:09:40.558Z,88.94
2017-08-29T22:12:08.074Z,88.78
2017-08-29T22:14:35.624Z,89.33
2017-08-29T22:17:03.143Z,88.39
2017-08-29T22:19:30.685Z,88.88
2017-08-29T22:21:58.223Z,91.17
2017-08-29T22:24:25.755Z,87.79
2017-08-29T22:26:53.292Z,87.82
2017-08-29T22:29:20.828Z,89.50
2017-08-29T22:31:48.352Z,87.43
2017-08-29T22:34:15.887Z,87.96
2017-08-29T22:36:43.434Z,90.34
2017-08-29T22:39:10.951Z,89.87
2017-08-29T22:41:38.493Z,91.19
2017-08-29T22:44:06.033Z,91.02
2017-08-29T22:46:33.561Z,90.02
2017-08-29T22:49:01.080Z,90.77
2017-08-29T22:51:28.615Z,90.35
2017-08-29T22:53:56.130Z,89.72
2017-08-29T22:56:23.660Z,88.53
2017-08-29T22:58:51.201Z,92.29
2017-08-29T23:01:18.725Z,91.46
2017-08-29T23:03:46.243Z,90.59
2017-08-29T23:06:13.748Z,89.31
2017-08-29T23:08:41.283Z,90.57
2017-08-29T23:11:08.819Z,88.84
2017-08-29T23:13:39.412Z,90.55
2017-08-29T23:16:06.920Z,89.62
2017-08-29T23:18:34.449Z,90.57
2017-08-29T23:21:01.966Z,89.69
2017-08-29T23:23:29.522Z,90.61
2017-08-29T23:25:57.052Z,88.75
2017-08-29T23:28:24.568Z,87.88
2017-08-29T23:30:52.113Z,88.69
2017-08-29T23:33:19.636Z,89.31
2017-08-29T23:35:47.165Z,88.59
2017-08-29T23:38:14.684Z,88.05
2017-08-29T23:40:42.210Z,89.57
2017-08-29T23:43:09.714Z,89.65
2017-08-29T23:45:37.235Z,89.04
2017-08-29T23:48:04.750Z,89.30
2017-08-29T23:50:32.265Z,91.88
2017-08-29T23:52:59.786Z,91.11
2017-08-29T23:55:27.312Z,92.55
2017-08-29T23:57:54.838Z,93.28
